Sezela, South Africa

7:06 AM SAST on August 21, 2014 (GMT +0200)
La Mercy | Change Station
CLOSE
Current Station
Airport
Location: La Mercy,
Elevation: 358 ft
Nearby Weather Stations

Elev 358 ft 29.60 °S, 31.13 °E | Updated 1 hour ago

Overcast
Overcast
68 °F
Feels Like 68 °F
N
9
Wind Variable Wind from NNE

Today
High -- | Low -- °F
--% Chance of Precip.
Yesterday
High -- | Low -- °F
Precip. -- in
6:25 AM 5:35 PM
Waning Crescent, 17% visible
Pressure 29.98 in
Visibility 6.2 miles
Clouds Overcast 4000 ft
Dew Point 59 °F
Humidity 73%
Rainfall 0.00 in
Snow Depth Not available.
UV 0 out of 12
Pollen Not available.
Air Quality Not available.
Flu Activity Not available.
METAR FALE 210400Z 02008KT 9999 OVC040 20/15 Q1015 TEMPO 5000 RA

More Conditions Fewer Conditions

Pressure 29.98 in
Visibility 6.2 miles
Clouds Overcast 4000 ft
Dew Point 59 °F
Humidity 73%
Rainfall 0.00 in
Snow Depth Not available.
UV 0 out of 12
Pollen Not available.
Air Quality Not available.
Flu Activity Not available.
METAR FALE 210400Z 02008KT 9999 OVC040 20/15 Q1015 TEMPO 5000 RA

More Conditions Fewer Conditions

10-Day Weather Forecast

Almanac

Astronomy

Aug. 21, 2014 Rise Set
Actual Time 6:25 AM SAST 5:35 PM SAST
Civil Twilight 6:01 AM SAST 6:00 PM SAST
Nautical Twilight 5:32 AM SAST 6:28 PM SAST
Astronomical Twilight 5:05 AM SAST 6:56 PM SAST
Moon 3:20 AM SAST 2:12 PM SAST
Length of Visible Light 11h 59m
Length of Day
11h 10m
Tomorrow will be 1m 38s longer.
Waning Crescent, 17% of the Moon is Illuminated
Today
Waning Crescent
Aug 25
New
Sep 2
First Quarter
Sep 8
Full
Sep 15
Last Quarter

Yesterday's Extremes

Country Highs Country Lows

Community

WunderPhotos

Upload Photos

1,745,857 photos uploaded!

Nearby

Snow Depth

Not available.

Earthquake Activity

City Distance Mag. Time & Date
No recent earthquake activity has been reported nearby.
Minimum magnitude displayed is 2.5.

Coastal Water Temperatures

Place Temperature
No Stations Reporting

Nearby Weather Stations